Wetterdaten: Woche 20.05.13 - 26.05.13 (KW21)
Datum Zeit Temp. Aussen +5cm Feuchte Auss Luftdruck Regen Sonnenschein Regendauer UV Solar Windben
20.05.2013 00:00 11,2 C 10,1 C 88 % 1007,1 hPa 0,0 l/m 0,00 h 0,00 h 0,0 UV-I 0 W/m 0,8 km/h (0 Bft)
20.05.2013 01:00 11,4 C 10,7 C 90 % 1007,1 hPa 0,0 l/m 0,00 h 0,00 h 0,0 UV-I 0 W/m 0,0 km/h (0 Bft)
20.05.2013 02:00 11,8 C 11,0 C 92 % 1006,7 hPa 0,0 l/m 0,00 h 0,00 h 0,0 UV-I 0 W/m 4,0 km/h (1 Bft)
20.05.2013 03:00 11,8 C 10,7 C 92 % 1006,6 hPa 0,0 l/m 0,00 h 0,00 h 0,0 UV-I 0 W/m 1,0 km/h (0 Bft)
20.05.2013 04:00 11,6 C 10,7 C 93 % 1006,4 hPa 0,0 l/m 0,00 h 0,00 h 0,0 UV-I 0 W/m 3,3 km/h (1 Bft)
20.05.2013 05:00 11,4 C 10,7 C 94 % 1006,2 hPa 0,0 l/m 0,00 h 0,00 h 0,0 UV-I 5 W/m 5,1 km/h (1 Bft)
20.05.2013 06:00 11,3 C 10,7 C 94 % 1006,3 hPa 0,0 l/m 0,00 h 0,00 h 0,0 UV-I 13 W/m 2,7 km/h (1 Bft)
20.05.2013 07:00 11,2 C 10,7 C 94 % 1006,8 hPa 0,0 l/m 0,00 h 0,10 h 0,0 UV-I 13 W/m 2,1 km/h (1 Bft)
20.05.2013 08:00 11,3 C 10,2 C 95 % 1006,9 hPa 1,0 l/m 0,00 h 0,80 h 0,0 UV-I 41 W/m 1,3 km/h (1 Bft)
20.05.2013 09:00 11,1 C 10,1 C 96 % 1007,1 hPa 0,8 l/m 0,00 h 1,00 h 0,0 UV-I 48 W/m 3,1 km/h (1 Bft)
20.05.2013 10:00 11,0 C 10,5 C 97 % 1007,4 hPa 0,4 l/m 0,00 h 0,70 h 0,5 UV-I 114 W/m 2,3 km/h (1 Bft)
20.05.2013 11:00 10,9 C 10,2 C 96 % 1007,8 hPa 0,0 l/m 0,00 h 0,23 h 0,0 UV-I 89 W/m 4,2 km/h (1 Bft)
20.05.2013 12:00 11,2 C 10,5 C 95 % 1008,2 hPa 0,2 l/m 0,00 h 0,52 h 0,5 UV-I 119 W/m 2,1 km/h (1 Bft)
20.05.2013 13:00 11,5 C 10,7 C 94 % 1008,4 hPa 0,0 l/m 0,00 h 0,90 h 1,1 UV-I 194 W/m 4,1 km/h (1 Bft)
20.05.2013 14:00 12,1 C 10,7 C 93 % 1008,5 hPa 0,0 l/m 0,00 h 0,33 h 1,0 UV-I 233 W/m 2,6 km/h (1 Bft)
20.05.2013 15:00 13,3 C 10,7 C 88 % 1008,7 hPa 0,0 l/m 0,27 h 0,10 h 1,9 UV-I 404 W/m 4,0 km/h (1 Bft)
20.05.2013 16:00 14,4 C 10,7 C 83 % 1008,7 hPa 0,0 l/m 0,40 h 0,00 h 1,3 UV-I 354 W/m 3,9 km/h (1 Bft)
20.05.2013 17:00 14,4 C 10,7 C 82 % 1008,7 hPa 0,0 l/m 0,10 h 0,00 h 0,6 UV-I 245 W/m 1,4 km/h (1 Bft)
20.05.2013 18:00 14,4 C 10,7 C 82 % 1008,5 hPa 0,0 l/m 0,00 h 0,00 h 0,0 UV-I 147 W/m 1,4 km/h (1 Bft)
20.05.2013 19:00 14,2 C 13,7 C 83 % 1008,5 hPa 0,0 l/m 0,17 h 0,00 h 0,0 UV-I 114 W/m 0,4 km/h (0 Bft)
20.05.2013 20:00 14,2 C 12,5 C 83 % 1008,8 hPa 0,0 l/m 0,00 h 0,00 h 0,0 UV-I 28 W/m 0,1 km/h (0 Bft)
20.05.2013 21:00 13,4 C 11,0 C 85 % 1009,0 hPa 0,0 l/m 0,00 h 0,00 h 0,0 UV-I 6 W/m 0,2 km/h (0 Bft)
20.05.2013 22:00 12,7 C 11,2 C 88 % 1009,3 hPa 0,0 l/m 0,00 h 0,00 h 0,0 UV-I 0 W/m 0,0 km/h (0 Bft)
20.05.2013 23:00 12,3 C 9,8 C 90 % 1009,3 hPa 0,0 l/m 0,00 h 0,00 h 0,0 UV-I 0 W/m 0,0 km/h (0 Bft)
21.05.2013 00:00 11,4 C 9,8 C 92 % 1009,3 hPa 0,0 l/m 0,00 h 0,00 h 0,0 UV-I 0 W/m 0,0 km/h (0 Bft)
21.05.2013 01:00 11,1 C 9,5 C 94 % 1009,2 hPa 0,0 l/m 0,00 h 0,00 h 0,0 UV-I 0 W/m 0,0 km/h (0 Bft)
21.05.2013 02:00 10,4 C 8,4 C 94 % 1009,4 hPa 0,0 l/m 0,00 h 0,00 h 0,0 UV-I 0 W/m 1,4 km/h (1 Bft)
21.05.2013 03:00 9,4 C 7,6 C 95 % 1009,4 hPa 0,0 l/m 0,00 h 0,00 h 0,0 UV-I 0 W/m 0,2 km/h (0 Bft)
21.05.2013 04:00 8,6 C 6,7 C 95 % 1009,2 hPa 0,0 l/m 0,00 h 0,00 h 0,0 UV-I 0 W/m 0,0 km/h (0 Bft)
21.05.2013 05:00 7,9 C 6,2 C 95 % 1009,0 hPa 0,0 l/m 0,10 h 0,00 h 0,0 UV-I 13 W/m 0,1 km/h (0 Bft)
21.05.2013 06:00 8,0 C 7,5 C 96 % 1009,0 hPa 0,0 l/m 0,20 h 0,00 h 0,0 UV-I 46 W/m 2,0 km/h (1 Bft)
21.05.2013 07:00 9,0 C 9,1 C 97 % 1009,2 hPa 0,0 l/m 0,00 h 0,00 h 0,0 UV-I 97 W/m 9,3 km/h (2 Bft)
21.05.2013 08:00 10,3 C 10,3 C 97 % 1009,2 hPa 0,0 l/m 0,37 h 0,00 h 0,0 UV-I 207 W/m 8,1 km/h (2 Bft)
21.05.2013 09:00 12,1 C 12,8 C 91 % 1009,4 hPa 0,0 l/m 0,53 h 0,00 h 0,8 UV-I 317 W/m 4,3 km/h (1 Bft)
21.05.2013 10:00 14,2 C 16,3 C 82 % 1009,6 hPa 0,0 l/m 0,50 h 0,00 h 1,4 UV-I 369 W/m 5,2 km/h (1 Bft)
21.05.2013 11:00 14,9 C 15,9 C 78 % 1009,7 hPa 0,0 l/m 0,17 h 0,00 h 1,8 UV-I 387 W/m 2,1 km/h (1 Bft)
21.05.2013 12:00 15,9 C 19,7 C 74 % 1009,6 hPa 0,0 l/m 0,67 h 0,00 h 2,7 UV-I 583 W/m 4,0 km/h (1 Bft)
21.05.2013 13:00 16,2 C 18,4 C 72 % 1009,4 hPa 0,0 l/m 0,43 h 0,00 h 2,4 UV-I 481 W/m 2,1 km/h (1 Bft)
21.05.2013 14:00 16,7 C 18,3 C 71 % 1009,1 hPa 0,0 l/m 0,20 h 0,00 h 2,0 UV-I 420 W/m 6,2 km/h (2 Bft)
21.05.2013 15:00 16,7 C 17,1 C 72 % 1009,0 hPa 0,0 l/m 0,00 h 0,00 h 1,2 UV-I 246 W/m 6,7 km/h (2 Bft)
21.05.2013 16:00 16,5 C 16,6 C 74 % 1008,9 hPa 0,0 l/m 0,00 h 0,00 h 0,8 UV-I 201 W/m 8,9 km/h (2 Bft)
21.05.2013 17:00 15,2 C 14,8 C 81 % 1009,2 hPa 0,0 l/m 0,00 h 0,00 h 0,0 UV-I 107 W/m 7,3 km/h (2 Bft)
21.05.2013 18:00 14,6 C 13,9 C 82 % 1009,2 hPa 0,0 l/m 0,00 h 0,07 h 0,0 UV-I 108 W/m 8,1 km/h (2 Bft)
21.05.2013 19:00 13,3 C 11,4 C 87 % 1009,3 hPa 0,4 l/m 0,00 h 0,87 h 0,0 UV-I 29 W/m 3,4 km/h (1 Bft)
21.05.2013 20:00 11,9 C 10,4 C 92 % 1009,4 hPa 0,2 l/m 0,00 h 0,47 h 0,0 UV-I 11 W/m 3,3 km/h (1 Bft)
21.05.2013 21:00 11,1 C 9,7 C 95 % 1009,7 hPa 1,4 l/m 0,00 h 1,00 h 0,0 UV-I 0 W/m 1,2 km/h (1 Bft)
21.05.2013 22:00 10,6 C 9,4 C 96 % 1010,0 hPa 2,0 l/m 0,00 h 1,00 h 0,0 UV-I 0 W/m 3,3 km/h (1 Bft)
21.05.2013 23:00 10,0 C 8,9 C 97 % 1010,1 hPa 2,0 l/m 0,00 h 1,00 h 0,0 UV-I 0 W/m 5,6 km/h (1 Bft)
22.05.2013 00:00 9,5 C 8,4 C 97 % 1010,1 hPa 0,6 l/m 0,00 h 0,67 h 0,0 UV-I 0 W/m 5,9 km/h (2 Bft)
22.05.2013 01:00 9,2 C 8,4 C 98 % 1009,9 hPa 0,2 l/m 0,00 h 0,37 h 0,0 UV-I 0 W/m 6,7 km/h (2 Bft)
22.05.2013 02:00 8,9 C 8,1 C 98 % 1009,8 hPa 0,4 l/m 0,00 h 0,70 h 0,0 UV-I 0 W/m 9,5 km/h (2 Bft)
22.05.2013 03:00 8,6 C 7,9 C 98 % 1009,9 hPa 0,2 l/m 0,00 h 0,87 h 0,0 UV-I 0 W/m 10,0 km/h (2 Bft)
22.05.2013 04:00 8,4 C 7,4 C 98 % 1010,0 hPa 0,2 l/m 0,00 h 0,30 h 0,0 UV-I 0 W/m 14,1 km/h (3 Bft)
22.05.2013 05:00 8,2 C 7,3 C 98 % 1010,2 hPa 0,2 l/m 0,00 h 0,50 h 0,0 UV-I 8 W/m 8,1 km/h (2 Bft)
22.05.2013 06:00 7,9 C 7,2 C 98 % 1010,4 hPa 0,2 l/m 0,00 h 0,37 h 0,0 UV-I 17 W/m 11,3 km/h (2 Bft)
22.05.2013 07:00 7,4 C 6,7 C 98 % 1011,0 hPa 0,0 l/m 0,00 h 0,00 h 0,0 UV-I 44 W/m 16,6 km/h (3 Bft)
22.05.2013 08:00 7,5 C 6,9 C 98 % 1011,5 hPa 0,0 l/m 0,00 h 0,00 h 0,0 UV-I 83 W/m 10,6 km/h (2 Bft)
22.05.2013 09:00 7,5 C 6,9 C 95 % 1012,0 hPa 0,0 l/m 0,00 h 0,00 h 0,0 UV-I 73 W/m 7,2 km/h (2 Bft)
22.05.2013 10:00 8,0 C 7,6 C 94 % 1012,3 hPa 0,0 l/m 0,00 h 0,00 h 0,5 UV-I 137 W/m 9,4 km/h (2 Bft)
22.05.2013 11:00 8,6 C 8,5 C 92 % 1012,5 hPa 0,0 l/m 0,00 h 0,03 h 0,6 UV-I 163 W/m 11,5 km/h (2 Bft)
22.05.2013 12:00 9,4 C 9,5 C 87 % 1013,0 hPa 0,0 l/m 0,00 h 0,10 h 1,0 UV-I 203 W/m 14,5 km/h (3 Bft)
22.05.2013 13:00 10,2 C 10,9 C 82 % 1013,2 hPa 0,0 l/m 0,00 h 0,00 h 1,3 UV-I 283 W/m 14,2 km/h (3 Bft)
22.05.2013 14:00 10,7 C 10,3 C 79 % 1013,6 hPa 0,0 l/m 0,00 h 0,00 h 0,8 UV-I 148 W/m 11,9 km/h (2 Bft)
22.05.2013 15:00 10,5 C 9,9 C 81 % 1014,0 hPa 0,0 l/m 0,00 h 0,10 h 0,7 UV-I 130 W/m 11,0 km/h (2 Bft)
22.05.2013 16:00 10,3 C 9,9 C 82 % 1014,2 hPa 0,0 l/m 0,00 h 0,13 h 0,0 UV-I 114 W/m 9,4 km/h (2 Bft)
22.05.2013 17:00 11,1 C 11,0 C 81 % 1014,3 hPa 0,0 l/m 0,17 h 0,00 h 1,0 UV-I 229 W/m 9,9 km/h (2 Bft)
22.05.2013 18:00 11,0 C 10,1 C 78 % 1014,1 hPa 0,0 l/m 0,00 h 0,03 h 0,0 UV-I 88 W/m 5,5 km/h (1 Bft)
22.05.2013 19:00 10,9 C 10,0 C 80 % 1014,0 hPa 0,0 l/m 0,00 h 0,00 h 0,0 UV-I 68 W/m 7,4 km/h (2 Bft)
22.05.2013 20:00 10,5 C 9,4 C 80 % 1014,0 hPa 0,0 l/m 0,00 h 0,00 h 0,0 UV-I 37 W/m 5,2 km/h (1 Bft)
22.05.2013 21:00 9,6 C 7,5 C 80 % 1014,1 hPa 0,0 l/m 0,00 h 0,00 h 0,0 UV-I 9 W/m 1,3 km/h (1 Bft)
22.05.2013 22:00 8,2 C 6,5 C 84 % 1014,0 hPa 0,0 l/m 0,00 h 0,00 h 0,0 UV-I 0 W/m 1,9 km/h (1 Bft)
22.05.2013 23:00 8,1 C 7,3 C 87 % 1013,6 hPa 0,0 l/m 0,00 h 0,00 h 0,0 UV-I 0 W/m 1,6 km/h (1 Bft)
23.05.2013 00:00 8,0 C 6,8 C 89 % 1013,1 hPa 0,0 l/m 0,00 h 0,00 h 0,0 UV-I 0 W/m 0,8 km/h (0 Bft)
23.05.2013 01:00 7,7 C 6,8 C 90 % 1012,4 hPa 0,0 l/m 0,00 h 0,00 h 0,0 UV-I 0 W/m 0,5 km/h (0 Bft)
23.05.2013 02:00 7,7 C 6,8 C 92 % 1011,5 hPa 0,0 l/m 0,00 h 0,03 h 0,0 UV-I 0 W/m 0,4 km/h (0 Bft)
23.05.2013 03:00 7,6 C 6,4 C 94 % 1010,6 hPa 0,4 l/m 0,00 h 0,75 h 0,0 UV-I 0 W/m 2,2 km/h (1 Bft)
23.05.2013 04:00 6,5 C 4,9 C 92 % 1009,8 hPa 0,8 l/m 0,00 h 0,97 h 0,0 UV-I 0 W/m 3,2 km/h (1 Bft)
23.05.2013 05:00 5,6 C 4,6 C 93 % 1008,8 hPa 0,0 l/m 0,00 h 0,50 h 0,0 UV-I 6 W/m 2,4 km/h (1 Bft)
23.05.2013 06:00 5,5 C 4,7 C 95 % 1008,2 hPa 0,2 l/m 0,00 h 0,47 h 0,0 UV-I 18 W/m 1,3 km/h (1 Bft)
23.05.2013 07:00 5,7 C 5,1 C 96 % 1008,0 hPa 0,8 l/m 0,00 h 1,00 h 0,0 UV-I 15 W/m 0,0 km/h (0 Bft)
23.05.2013 08:00 5,7 C 4,9 C 96 % 1007,6 hPa 2,0 l/m 0,00 h 1,00 h 0,0 UV-I 22 W/m 0,3 km/h (0 Bft)
23.05.2013 09:00 5,7 C 5,1 C 96 % 1007,4 hPa 1,0 l/m 0,00 h 1,00 h 0,0 UV-I 80 W/m 4,5 km/h (1 Bft)
23.05.2013 10:00 5,4 C 4,9 C 96 % 1007,5 hPa 0,0 l/m 0,00 h 0,67 h 0,5 UV-I 175 W/m 15,2 km/h (3 Bft)
23.05.2013 11:00 5,4 C 5,1 C 93 % 1007,5 hPa 0,0 l/m 0,00 h 0,07 h 0,6 UV-I 228 W/m 13,4 km/h (3 Bft)
23.05.2013 12:00 6,1 C 6,6 C 90 % 1007,4 hPa 0,0 l/m 0,07 h 0,00 h 1,4 UV-I 276 W/m 5,5 km/h (1 Bft)
23.05.2013 13:00 6,9 C 7,3 C 87 % 1007,3 hPa 0,0 l/m 0,00 h 0,13 h 0,8 UV-I 188 W/m 4,5 km/h (1 Bft)
23.05.2013 14:00 7,0 C 6,1 C 89 % 1007,6 hPa 0,0 l/m 0,00 h 0,80 h 0,7 UV-I 139 W/m 4,6 km/h (1 Bft)
23.05.2013 15:00 8,1 C 9,0 C 86 % 1007,4 hPa 0,0 l/m 0,40 h 0,13 h 2,0 UV-I 502 W/m 6,9 km/h (2 Bft)
23.05.2013 16:00 8,1 C 8,2 C 84 % 1007,4 hPa 0,0 l/m 0,17 h 0,20 h 1,1 UV-I 274 W/m 13,2 km/h (3 Bft)
23.05.2013 17:00 8,5 C 8,5 C 78 % 1007,6 hPa 0,0 l/m 0,17 h 0,00 h 0,9 UV-I 274 W/m 17,5 km/h (3 Bft)
23.05.2013 18:00 7,8 C 6,6 C 82 % 1007,8 hPa 0,4 l/m 0,00 h 0,50 h 0,0 UV-I 52 W/m 13,7 km/h (3 Bft)
23.05.2013 19:00 6,6 C 5,6 C 91 % 1008,2 hPa 0,2 l/m 0,00 h 0,13 h 0,0 UV-I 78 W/m 3,9 km/h (1 Bft)
23.05.2013 20:00 6,7 C 5,1 C 90 % 1008,8 hPa 0,0 l/m 0,00 h 0,13 h 0,0 UV-I 29 W/m 2,0 km/h (1 Bft)
23.05.2013 21:00 6,3 C 4,9 C 88 % 1009,5 hPa 0,0 l/m 0,00 h 0,17 h 0,0 UV-I 6 W/m 4,5 km/h (1 Bft)
23.05.2013 22:00 5,6 C 3,6 C 88 % 1009,7 hPa 0,0 l/m 0,00 h 0,00 h 0,0 UV-I 0 W/m 0,0 km/h (0 Bft)
23.05.2013 23:00 4,5 C 2,4 C 89 % 1009,9 hPa 0,0 l/m 0,00 h 0,00 h 0,0 UV-I 0 W/m 0,0 km/h (0 Bft)
24.05.2013 00:00 3,8 C 2,4 C 92 % 1010,2 hPa 0,0 l/m 0,00 h 0,00 h 0,0 UV-I 0 W/m 0,1 km/h (0 Bft)
24.05.2013 01:00 3,5 C 2,6 C 94 % 1010,1 hPa 0,0 l/m 0,00 h 0,00 h 0,0 UV-I 0 W/m 1,8 km/h (1 Bft)
24.05.2013 02:00 3,2 C 2,1 C 95 % 1010,2 hPa 0,0 l/m 0,00 h 0,00 h 0,0 UV-I 0 W/m 0,0 km/h (0 Bft)
24.05.2013 03:00 2,7 C 1,8 C 95 % 1010,2 hPa 0,0 l/m 0,00 h 0,00 h 0,0 UV-I 0 W/m 1,1 km/h (0 Bft)
24.05.2013 04:00 2,5 C 1,8 C 96 % 1010,0 hPa 0,0 l/m 0,00 h 0,00 h 0,0 UV-I 0 W/m 1,4 km/h (1 Bft)
24.05.2013 05:00 2,2 C 1,4 C 96 % 1010,1 hPa 0,0 l/m 0,00 h 0,00 h 0,0 UV-I 8 W/m 0,5 km/h (0 Bft)
24.05.2013 06:00 2,6 C 2,7 C 96 % 1010,3 hPa 0,0 l/m 0,00 h 0,00 h 0,0 UV-I 45 W/m 1,9 km/h (1 Bft)
24.05.2013 07:00 3,9 C 4,5 C 97 % 1010,6 hPa 0,0 l/m 0,00 h 0,00 h 0,0 UV-I 95 W/m 1,3 km/h (1 Bft)
24.05.2013 08:00 5,3 C 6,2 C 97 % 1010,6 hPa 0,0 l/m 0,33 h 0,00 h 0,5 UV-I 237 W/m 3,2 km/h (1 Bft)
24.05.2013 09:00 7,8 C 7,5 C 88 % 1010,5 hPa 0,0 l/m 0,67 h 0,00 h 0,8 UV-I 422 W/m 5,3 km/h (1 Bft)
24.05.2013 10:00 9,6 C 14,6 C 76 % 1010,5 hPa 0,0 l/m 0,70 h 0,00 h 1,7 UV-I 633 W/m 6,9 km/h (2 Bft)
24.05.2013 11:00 11,0 C 14,2 C 66 % 1010,6 hPa 0,0 l/m 0,50 h 0,00 h 1,9 UV-I 608 W/m 6,9 km/h (2 Bft)
24.05.2013 12:00 10,7 C 13,7 C 63 % 1010,8 hPa 0,0 l/m 0,17 h 0,00 h 2,0 UV-I 393 W/m 6,2 km/h (2 Bft)
24.05.2013 13:00 11,7 C 14,8 C 59 % 1010,8 hPa 0,0 l/m 0,37 h 0,00 h 1,9 UV-I 576 W/m 6,2 km/h (2 Bft)
24.05.2013 14:00 13,0 C 14,2 C 55 % 1010,7 hPa 0,0 l/m 0,57 h 0,00 h 2,8 UV-I 653 W/m 13,1 km/h (3 Bft)
24.05.2013 15:00 13,8 C 14,5 C 53 % 1010,6 hPa 0,0 l/m 0,87 h 0,00 h 3,0 UV-I 786 W/m 13,8 km/h (3 Bft)
24.05.2013 16:00 13,9 C 14,1 C 50 % 1010,5 hPa 0,0 l/m 0,73 h 0,00 h 1,9 UV-I 572 W/m 11,2 km/h (2 Bft)
24.05.2013 17:00 13,7 C 13,1 C 48 % 1010,5 hPa 0,0 l/m 0,50 h 0,00 h 1,3 UV-I 388 W/m 11,7 km/h (2 Bft)
24.05.2013 18:00 12,3 C 11,2 C 54 % 1010,7 hPa 0,0 l/m 0,27 h 0,20 h 0,6 UV-I 166 W/m 10,1 km/h (2 Bft)
24.05.2013 19:00 11,3 C 10,2 C 57 % 1011,1 hPa 0,0 l/m 0,00 h 0,00 h 0,0 UV-I 63 W/m 6,0 km/h (2 Bft)
24.05.2013 20:00 10,3 C 8,3 C 65 % 1011,6 hPa 0,0 l/m 0,00 h 0,00 h 0,0 UV-I 20 W/m 1,0 km/h (0 Bft)
24.05.2013 21:00 8,4 C 6,0 C 77 % 1012,2 hPa 0,0 l/m 0,00 h 0,00 h 0,0 UV-I 9 W/m 0,0 km/h (0 Bft)
24.05.2013 22:00 7,5 C 5,4 C 81 % 1012,7 hPa 0,0 l/m 0,00 h 0,00 h 0,0 UV-I 0 W/m 0,0 km/h (0 Bft)
24.05.2013 23:00 7,2 C 5,3 C 84 % 1013,1 hPa 0,0 l/m 0,00 h 0,00 h 0,0 UV-I 0 W/m 0,0 km/h (0 Bft)
25.05.2013 00:00 6,4 C 4,1 C 86 % 1013,3 hPa 0,0 l/m 0,00 h 0,00 h 0,0 UV-I 0 W/m 0,0 km/h (0 Bft)
25.05.2013 01:00 5,3 C 3,0 C 88 % 1013,3 hPa 0,0 l/m 0,00 h 0,00 h 0,0 UV-I 0 W/m 0,0 km/h (0 Bft)
25.05.2013 02:00 4,4 C 2,6 C 90 % 1013,3 hPa 0,0 l/m 0,00 h 0,00 h 0,0 UV-I 0 W/m 0,0 km/h (0 Bft)
25.05.2013 03:00 3,8 C 2,1 C 91 % 1013,4 hPa 0,0 l/m 0,00 h 0,00 h 0,0 UV-I 0 W/m 0,0 km/h (0 Bft)
25.05.2013 04:00 3,2 C 1,6 C 93 % 1013,4 hPa 0,0 l/m 0,00 h 0,00 h 0,0 UV-I 0 W/m 0,0 km/h (0 Bft)
25.05.2013 05:00 2,8 C 1,6 C 93 % 1013,6 hPa 0,0 l/m 0,00 h 0,00 h 0,0 UV-I 8 W/m 0,0 km/h (0 Bft)
25.05.2013 06:00 2,9 C 2,5 C 94 % 1014,0 hPa 0,0 l/m 0,00 h 0,00 h 0,0 UV-I 31 W/m 0,0 km/h (0 Bft)
25.05.2013 07:00 3,7 C 4,2 C 95 % 1014,0 hPa 0,0 l/m 0,03 h 0,00 h 0,0 UV-I 95 W/m 0,1 km/h (0 Bft)
25.05.2013 08:00 5,7 C 6,4 C 96 % 1014,3 hPa 0,0 l/m 1,00 h 0,00 h 0,5 UV-I 310 W/m 5,4 km/h (1 Bft)
25.05.2013 09:00 8,9 C 10,2 C 89 % 1014,7 hPa 0,0 l/m 1,00 h 0,00 h 1,0 UV-I 489 W/m 11,5 km/h (2 Bft)
25.05.2013 10:00 11,5 C 18,0 C 76 % 1014,7 hPa 0,0 l/m 1,00 h 0,00 h 2,0 UV-I 628 W/m 11,7 km/h (2 Bft)
25.05.2013 11:00 13,3 C 18,8 C 64 % 1014,7 hPa 0,0 l/m 0,97 h 0,00 h 3,1 UV-I 739 W/m 14,2 km/h (3 Bft)
25.05.2013 12:00 14,4 C 21,7 C 60 % 1014,5 hPa 0,0 l/m 0,90 h 0,00 h 3,6 UV-I 817 W/m 14,7 km/h (3 Bft)
25.05.2013 13:00 15,3 C 20,8 C 54 % 1014,1 hPa 0,0 l/m 0,80 h 0,00 h 2,7 UV-I 809 W/m 16,7 km/h (3 Bft)
25.05.2013 14:00 15,7 C 17,9 C 58 % 1013,8 hPa 0,0 l/m 0,63 h 0,00 h 3,1 UV-I 710 W/m 18,4 km/h (3 Bft)
25.05.2013 15:00 15,4 C 16,6 C 61 % 1013,5 hPa 0,0 l/m 0,47 h 0,00 h 2,5 UV-I 539 W/m 18,4 km/h (3 Bft)
25.05.2013 16:00 14,4 C 14,8 C 66 % 1013,4 hPa 0,0 l/m 0,10 h 0,27 h 1,1 UV-I 259 W/m 11,2 km/h (2 Bft)
25.05.2013 17:00 14,3 C 14,5 C 65 % 1013,3 hPa 0,0 l/m 0,30 h 0,00 h 0,6 UV-I 267 W/m 20,3 km/h (4 Bft)
25.05.2013 18:00 13,1 C 13,0 C 70 % 1013,5 hPa 0,0 l/m 0,17 h 0,00 h 0,0 UV-I 180 W/m 26,0 km/h (4 Bft)
25.05.2013 19:00 12,2 C 11,8 C 73 % 1013,7 hPa 0,0 l/m 0,00 h 0,00 h 0,0 UV-I 86 W/m 18,5 km/h (3 Bft)
25.05.2013 20:00 11,4 C 10,7 C 75 % 1013,8 hPa 0,0 l/m 0,00 h 0,00 h 0,0 UV-I 28 W/m 12,7 km/h (3 Bft)
25.05.2013 21:00 10,1 C 9,0 C 78 % 1014,3 hPa 0,0 l/m 0,00 h 0,00 h 0,0 UV-I 8 W/m 10,4 km/h (2 Bft)
25.05.2013 22:00 9,3 C 8,1 C 80 % 1014,7 hPa 0,0 l/m 0,00 h 0,37 h 0,0 UV-I 0 W/m 6,8 km/h (2 Bft)
25.05.2013 23:00 8,4 C 6,6 C 87 % 1014,6 hPa 0,4 l/m 0,00 h 1,00 h 0,0 UV-I 0 W/m 3,5 km/h (1 Bft)
26.05.2013 00:00 7,5 C 6,2 C 93 % 1014,3 hPa 0,6 l/m 0,00 h 0,97 h 0,0 UV-I 0 W/m 5,5 km/h (1 Bft)
26.05.2013 01:00 7,3 C 6,2 C 95 % 1013,8 hPa 0,4 l/m 0,00 h 1,00 h 0,0 UV-I 0 W/m 6,4 km/h (2 Bft)
26.05.2013 02:00 7,3 C 6,2 C 96 % 1013,1 hPa 0,6 l/m 0,00 h 1,00 h 0,0 UV-I 0 W/m 8,1 km/h (2 Bft)
26.05.2013 03:00 7,3 C 6,2 C 97 % 1012,3 hPa 0,2 l/m 0,00 h 0,90 h 0,0 UV-I 0 W/m 10,0 km/h (2 Bft)
26.05.2013 04:00 7,3 C 6,6 C 97 % 1011,8 hPa 0,0 l/m 0,00 h 0,57 h 0,0 UV-I 0 W/m 7,6 km/h (2 Bft)
26.05.2013 05:00 7,3 C 6,8 C 98 % 1011,5 hPa 0,6 l/m 0,00 h 0,63 h 0,0 UV-I 0 W/m 10,8 km/h (2 Bft)
26.05.2013 06:00 7,4 C 6,8 C 98 % 1011,2 hPa 1,0 l/m 0,00 h 1,00 h 0,0 UV-I 8 W/m 8,2 km/h (2 Bft)
26.05.2013 07:00 7,7 C 6,9 C 98 % 1011,0 hPa 1,2 l/m 0,00 h 1,00 h 0,0 UV-I 15 W/m 7,0 km/h (2 Bft)
26.05.2013 08:00 7,9 C 7,3 C 99 % 1011,0 hPa 1,0 l/m 0,00 h 0,73 h 0,0 UV-I 30 W/m 8,1 km/h (2 Bft)
26.05.2013 09:00 8,1 C 7,3 C 99 % 1011,2 hPa 0,0 l/m 0,00 h 0,13 h 0,0 UV-I 44 W/m 10,5 km/h (2 Bft)
26.05.2013 10:00 8,3 C 7,8 C 99 % 1011,4 hPa 0,0 l/m 0,00 h 0,00 h 0,0 UV-I 78 W/m 9,4 km/h (2 Bft)
26.05.2013 11:00 8,7 C 8,4 C 99 % 1011,5 hPa 0,0 l/m 0,00 h 0,00 h 0,0 UV-I 121 W/m 12,9 km/h (3 Bft)
26.05.2013 12:00 9,5 C 9,5 C 97 % 1011,5 hPa 0,0 l/m 0,00 h 0,00 h 1,0 UV-I 175 W/m 12,5 km/h (3 Bft)
26.05.2013 13:00 10,7 C 10,6 C 92 % 1011,3 hPa 0,0 l/m 0,00 h 0,30 h 0,7 UV-I 190 W/m 11,9 km/h (2 Bft)
26.05.2013 14:00 11,0 C 10,2 C 89 % 1011,4 hPa 0,8 l/m 0,00 h 0,77 h 0,7 UV-I 133 W/m 8,9 km/h (2 Bft)
26.05.2013 15:00 10,4 C 9,6 C 94 % 1011,1 hPa 0,4 l/m 0,00 h 0,83 h 0,6 UV-I 151 W/m 9,8 km/h (2 Bft)
26.05.2013 16:00 10,5 C 10,0 C 94 % 1011,1 hPa 0,0 l/m 0,00 h 0,17 h 0,7 UV-I 201 W/m 11,8 km/h (2 Bft)
26.05.2013 17:00 11,1 C 11,1 C 89 % 1010,9 hPa 0,0 l/m 0,13 h 0,00 h 0,6 UV-I 255 W/m 15,6 km/h (3 Bft)
26.05.2013 18:00 11,5 C 11,5 C 83 % 1010,8 hPa 0,0 l/m 0,27 h 0,00 h 0,6 UV-I 226 W/m 15,9 km/h (3 Bft)
26.05.2013 19:00 11,1 C 10,3 C 81 % 1010,6 hPa 0,0 l/m 0,00 h 0,00 h 0,0 UV-I 94 W/m 13,0 km/h (3 Bft)
26.05.2013 20:00 10,9 C 9,6 C 79 % 1010,5 hPa 0,0 l/m 0,00 h 0,00 h 0,0 UV-I 31 W/m 9,4 km/h (2 Bft)
26.05.2013 21:00 10,3 C 8,7 C 80 % 1010,4 hPa 0,0 l/m 0,00 h 0,00 h 0,0 UV-I 8 W/m 9,1 km/h (2 Bft)
26.05.2013 22:00 9,7 C 8,3 C 82 % 1010,7 hPa 0,0 l/m 0,00 h 0,00 h 0,0 UV-I 0 W/m 7,4 km/h (2 Bft)
26.05.2013 23:00 9,2 C 7,9 C 83 % 1010,7 hPa 0,0 l/m 0,00 h 0,00 h 0,0 UV-I 0 W/m 7,9 km/h (2 Bft)
Min-Datum _ 24.05.13 24.05.13 24.05.13 20.05.13 - - - - - 20.05.13
_ Min-Zeit 05:14 05:10 17:00 05:06 - - - - - 00:02
Minimum _ 2,2 C 1,2 C 46 % 1006,0 hPa - - - - - 0,0 km/h (0 Bft)
Max-Datum _ 21.05.13 25.05.13 26.05.13 25.05.13 21.05.13 20.05.13 20.05.13 25.05.13 25.05.13 25.05.13
_ Max-Zeit 14:56 13:14 08:08 09:28 22:02 15:12 07:54 13:56 14:14 18:04
Maximum _ 17,6 C 24,6 C 99 % 1014,9 hPa 2,0 l/m 0,03 h 0,03 h 4,6 UV-I 1074 W/m 43,8 km/h
NW (6 Bft)
Durchschnitt _ 9,6 C 9,1 C 86 % 1010,6 hPa #23,4 l/m #18:30 h #33:52 h 1,3 UV-I 200 W/m 6,2 km/h (2 Bft)
© 2013 W. Hausmann